Time;durP1;ratioP1;P1;durP2;ratioP2;P2;SDS_P1;SDS_P2;PMS_P1;PMS_P2;Temp;Humidity;BMP_temperature;BMP_pressure;BME280_temperature;BME280_humidity;BME280_pressure;Samples;Min_cycle;Max_cycle;Signal;HPM_P1;HPM_P2
2022/07/25 00:01:04;;;;;;;0.08;0.08;;;;;;;;;;5038382;28;20511;-88
2022/07/25 00:03:30;;;;;;;0.00;0.00;;;;;;;;;;5037446;28;20530;-89
2022/07/25 00:05:56;;;;;;;0.00;0.00;;;;;;;;;;5037951;28;20126;-90
2022/07/25 00:08:22;;;;;;;0.10;0.10;;;;;;;;;;5038231;28;20049;-89
2022/07/25 00:10:48;;;;;;;0.10;0.10;;;;;;;;;;5038507;28;20103;-87
2022/07/25 00:13:14;;;;;;;0.10;0.10;;;;;;;;;;5037478;28;20474;-89
2022/07/25 00:15:41;;;;;;;0.05;0.05;;;;;;;;;;5038016;28;20052;-88
2022/07/25 00:18:07;;;;;;;0.00;0.00;;;;;;;;;;5037711;28;20038;-89
2022/07/25 00:20:33;;;;;;;0.10;0.10;;;;;;;;;;5038056;28;20041;-89
2022/07/25 00:22:59;;;;;;;0.00;0.00;;;;;;;;;;5038473;28;20483;-89
2022/07/25 00:25:25;;;;;;;0.10;0.10;;;;;;;;;;5038231;28;20044;-89
2022/07/25 00:27:51;;;;;;;0.00;0.00;;;;;;;;;;5038640;28;20037;-89
2022/07/25 00:30:17;;;;;;;0.00;0.00;;;;;;;;;;5038173;28;20033;-90
2022/07/25 00:32:43;;;;;;;0.00;0.00;;;;;;;;;;5037835;28;20076;-89
2022/07/25 00:35:09;;;;;;;0.00;0.00;;;;;;;;;;5037263;28;20041;-89
2022/07/25 00:37:35;;;;;;;0.10;0.10;;;;;;;;;;5036750;28;20065;-89
2022/07/25 00:40:01;;;;;;;0.00;0.00;;;;;;;;;;5037134;28;20052;-89
2022/07/25 00:42:28;;;;;;;0.10;0.10;;;;;;;;;;5037456;28;20033;-89
2022/07/25 00:44:54;;;;;;;0.10;0.10;;;;;;;;;;5037364;28;20042;-89
2022/07/25 00:47:20;;;;;;;0.00;0.00;;;;;;;;;;5037018;28;20037;-89
2022/07/25 00:49:46;;;;;;;0.10;0.10;;;;;;;;;;5037401;28;20084;-89
2022/07/25 00:52:12;;;;;;;0.10;0.10;;;;;;;;;;5037329;28;20056;-88
2022/07/25 00:54:38;;;;;;;0.10;0.10;;;;;;;;;;5037069;28;20076;-90
2022/07/25 00:57:04;;;;;;;0.00;0.00;;;;;;;;;;5036905;28;20045;-88
2022/07/25 00:59:32;;;;;;;0.05;0.05;;;;;;;;;;5037169;28;20053;-88
2022/07/25 01:01:58;;;;;;;0.10;0.10;;;;;;;;;;5036806;28;20116;-89
2022/07/25 01:04:24;;;;;;;0.00;0.00;;;;;;;;;;5037558;28;20091;-89
2022/07/25 01:06:50;;;;;;;0.00;0.00;;;;;;;;;;5036734;28;20040;-88
2022/07/25 01:09:17;;;;;;;0.00;0.00;;;;;;;;;;5037291;28;20045;-88
2022/07/25 01:11:43;;;;;;;0.10;0.10;;;;;;;;;;5036721;28;20045;-89
2022/07/25 01:14:09;;;;;;;0.00;0.00;;;;;;;;;;5037380;28;20409;-88
2022/07/25 01:16:35;;;;;;;0.10;0.10;;;;;;;;;;5036677;28;20080;-87
2022/07/25 01:19:01;;;;;;;0.00;0.00;;;;;;;;;;5036687;28;20044;-88
2022/07/25 01:21:27;;;;;;;0.10;0.10;;;;;;;;;;5036397;28;20055;-89
2022/07/25 01:23:53;;;;;;;0.10;0.10;;;;;;;;;;5035667;28;20045;-89
2022/07/25 01:26:19;;;;;;;0.00;0.00;;;;;;;;;;5037358;28;20038;-89
2022/07/25 01:28:45;;;;;;;0.10;0.10;;;;;;;;;;5036665;28;20052;-88
2022/07/25 01:31:11;;;;;;;0.10;0.10;;;;;;;;;;5037343;28;20045;-88
2022/07/25 01:33:37;;;;;;;0.00;0.00;;;;;;;;;;5036492;28;20041;-88
2022/07/25 01:36:03;;;;;;;1.50;1.40;;;;;;;;;;5035641;28;20098;-89
2022/07/25 01:38:29;;;;;;;0.10;0.10;;;;;;;;;;5036350;28;20148;-89
2022/07/25 01:40:55;;;;;;;0.00;0.00;;;;;;;;;;5037020;28;20091;-89
2022/07/25 01:43:22;;;;;;;0.10;0.10;;;;;;;;;;5036588;28;20037;-89
2022/07/25 01:45:48;;;;;;;0.10;0.10;;;;;;;;;;5036850;28;20088;-90
2022/07/25 01:48:14;;;;;;;0.00;0.00;;;;;;;;;;5037453;28;20064;-89
2022/07/25 01:50:40;;;;;;;0.08;0.08;;;;;;;;;;5036679;28;20041;-89
2022/07/25 01:53:06;;;;;;;0.15;0.15;;;;;;;;;;5036704;28;20133;-88
2022/07/25 01:55:32;;;;;;;0.10;0.10;;;;;;;;;;5036321;28;20119;-88
2022/07/25 01:57:58;;;;;;;0.00;0.00;;;;;;;;;;5036845;28;20045;-88
2022/07/25 02:00:24;;;;;;;0.00;0.00;;;;;;;;;;5036484;28;20044;-89
2022/07/25 02:03:28;;;;;;;0.03;0.03;;;;;;;;;;5036137;28;20033;-89
2022/07/25 02:05:37;;;;;;;0.10;0.10;;;;;;;;;;5036284;28;20037;-88
2022/07/25 02:08:03;;;;;;;0.00;0.00;;;;;;;;;;5004353;28;20045;-89
2022/07/25 02:10:29;;;;;;;0.17;0.17;;;;;;;;;;5036457;28;20037;-89
2022/07/25 02:12:56;;;;;;;0.00;0.00;;;;;;;;;;5036654;28;20028;-89
2022/07/25 02:15:22;;;;;;;0.00;0.00;;;;;;;;;;5019512;28;20041;-89
2022/07/25 02:17:48;;;;;;;0.03;0.03;;;;;;;;;;5035280;28;20043;-88
2022/07/25 02:20:14;;;;;;;0.10;0.10;;;;;;;;;;5035200;28;20041;-89
2022/07/25 02:22:40;;;;;;;0.00;0.00;;;;;;;;;;5035595;28;20128;-89
2022/07/25 02:25:06;;;;;;;0.00;0.00;;;;;;;;;;5036401;28;20530;-89
2022/07/25 02:27:32;;;;;;;0.00;0.00;;;;;;;;;;5036606;28;20080;-89
2022/07/25 02:29:58;;;;;;;0.15;0.15;;;;;;;;;;5036715;28;20042;-90
2022/07/25 02:32:24;;;;;;;0.15;0.15;;;;;;;;;;5003962;28;20183;-89
2022/07/25 02:34:50;;;;;;;0.08;0.08;;;;;;;;;;5036159;28;20080;-89
2022/07/25 02:37:16;;;;;;;0.00;0.00;;;;;;;;;;5018615;28;20099;-89
2022/07/25 02:39:44;;;;;;;0.10;0.10;;;;;;;;;;5034901;28;20045;-89
2022/07/25 02:42:10;;;;;;;0.00;0.00;;;;;;;;;;5035344;28;20475;-87
2022/07/25 02:44:36;;;;;;;0.00;0.00;;;;;;;;;;5034925;28;20044;-89
2022/07/25 02:47:02;;;;;;;0.10;0.10;;;;;;;;;;5035036;28;20049;-88
2022/07/25 02:49:28;;;;;;;0.00;0.00;;;;;;;;;;5035211;28;20049;-88
2022/07/25 02:51:56;;;;;;;0.10;0.10;;;;;;;;;;5035633;28;20056;-89
2022/07/25 02:54:22;;;;;;;0.10;0.10;;;;;;;;;;5018431;28;20171;-88
2022/07/25 02:56:48;;;;;;;0.00;0.00;;;;;;;;;;5034404;28;20045;-89
2022/07/25 02:59:14;;;;;;;0.00;0.00;;;;;;;;;;5033946;28;20052;-89
2022/07/25 03:01:40;;;;;;;0.00;0.00;;;;;;;;;;5034639;28;20041;-88
2022/07/25 03:04:06;;;;;;;0.00;0.00;;;;;;;;;;5035186;28;20095;-89
2022/07/25 03:06:35;;;;;;;0.00;0.00;;;;;;;;;;5035585;28;20037;-89
2022/07/25 03:09:01;;;;;;;0.10;0.10;;;;;;;;;;5035455;28;20043;-89
2022/07/25 03:11:27;;;;;;;0.00;0.00;;;;;;;;;;5035751;28;20041;-90
2022/07/25 03:13:53;;;;;;;0.10;0.10;;;;;;;;;;5035452;28;20041;-89
2022/07/25 03:16:20;;;;;;;0.00;0.00;;;;;;;;;;5035221;28;20085;-89
2022/07/25 03:18:46;;;;;;;0.00;0.00;;;;;;;;;;5035545;28;20045;-89
2022/07/25 03:21:12;;;;;;;0.05;0.05;;;;;;;;;;5034959;28;20037;-89
2022/07/25 03:23:39;;;;;;;0.65;0.65;;;;;;;;;;5035627;28;20041;-90
2022/07/25 03:26:05;;;;;;;0.00;0.00;;;;;;;;;;5019124;28;20037;-89
2022/07/25 03:28:31;;;;;;;0.00;0.00;;;;;;;;;;5035554;28;20511;-89
2022/07/25 03:30:57;;;;;;;0.10;0.10;;;;;;;;;;5035642;28;20128;-89
2022/07/25 03:33:23;;;;;;;0.00;0.00;;;;;;;;;;5035865;28;20080;-89
2022/07/25 03:35:49;;;;;;;0.05;0.05;;;;;;;;;;5035625;28;20041;-89
2022/07/25 03:38:15;;;;;;;0.00;0.00;;;;;;;;;;5034361;28;20384;-89
2022/07/25 03:40:41;;;;;;;0.08;0.08;;;;;;;;;;5035622;28;20046;-89
2022/07/25 03:43:07;;;;;;;0.30;0.30;;;;;;;;;;5035499;28;20045;-88
2022/07/25 03:45:33;;;;;;;0.08;0.08;;;;;;;;;;5035503;28;20044;-89
2022/07/25 03:47:59;;;;;;;0.00;0.00;;;;;;;;;;5038671;28;20472;-90
2022/07/25 03:50:25;;;;;;;0.00;0.00;;;;;;;;;;5039287;28;20442;-88
2022/07/25 03:52:51;;;;;;;0.00;0.00;;;;;;;;;;5038750;28;20129;-88
2022/07/25 03:55:17;;;;;;;0.10;0.10;;;;;;;;;;5039268;28;20046;-89
2022/07/25 03:57:43;;;;;;;0.10;0.10;;;;;;;;;;5039707;28;20090;-89
2022/07/25 04:00:11;;;;;;;0.00;0.00;;;;;;;;;;5039022;28;20438;-87
2022/07/25 04:02:37;;;;;;;0.05;0.05;;;;;;;;;;5020025;28;20074;-86
2022/07/25 04:05:06;;;;;;;0.00;0.00;;;;;;;;;;5038498;28;20084;-89
2022/07/25 04:07:32;;;;;;;0.10;0.10;;;;;;;;;;5018927;28;20030;-88
2022/07/25 04:09:58;;;;;;;0.00;0.00;;;;;;;;;;5021760;28;20395;-89
2022/07/25 04:12:24;;;;;;;0.03;0.03;;;;;;;;;;5021541;28;20519;-89
2022/07/25 04:14:50;;;;;;;0.00;0.00;;;;;;;;;;5038697;28;20041;-89
2022/07/25 04:17:17;;;;;;;0.10;0.10;;;;;;;;;;5037698;28;20069;-89
2022/07/25 04:19:43;;;;;;;0.10;0.10;;;;;;;;;;5002226;28;20547;-89
2022/07/25 04:22:09;;;;;;;0.10;0.10;;;;;;;;;;5019122;28;20030;-89
2022/07/25 04:24:35;;;;;;;0.00;0.00;;;;;;;;;;5037888;28;20596;-89
2022/07/25 04:27:01;;;;;;;0.10;0.10;;;;;;;;;;5021829;28;20423;-89
2022/07/25 04:29:27;;;;;;;0.10;0.10;;;;;;;;;;5020216;28;20045;-89
2022/07/25 04:31:54;;;;;;;0.10;0.10;;;;;;;;;;5020564;28;20088;-89
2022/07/25 04:34:20;;;;;;;0.10;0.10;;;;;;;;;;5019977;28;20041;-89
2022/07/25 04:36:46;;;;;;;0.00;0.00;;;;;;;;;;5037853;28;20045;-90
2022/07/25 04:39:12;;;;;;;0.00;0.00;;;;;;;;;;5038102;28;20140;-89
2022/07/25 04:41:38;;;;;;;0.00;0.00;;;;;;;;;;5037867;28;20073;-89
2022/07/25 04:44:06;;;;;;;0.00;0.00;;;;;;;;;;5037650;28;20049;-88
2022/07/25 04:46:32;;;;;;;0.08;0.08;;;;;;;;;;5021200;28;20037;-88
2022/07/25 04:48:58;;;;;;;0.00;0.00;;;;;;;;;;5037817;28;20076;-88
2022/07/25 04:51:24;;;;;;;0.00;0.00;;;;;;;;;;5019783;28;20053;-89
2022/07/25 04:53:50;;;;;;;0.00;0.00;;;;;;;;;;5037642;28;20041;-88
2022/07/25 04:56:16;;;;;;;0.00;0.00;;;;;;;;;;5038200;28;20475;-88
2022/07/25 04:58:42;;;;;;;0.00;0.00;;;;;;;;;;5020089;28;20077;-88
2022/07/25 05:01:08;;;;;;;0.10;0.10;;;;;;;;;;5017516;28;20034;-88
2022/07/25 05:03:35;;;;;;;0.10;0.10;;;;;;;;;;5033987;28;20037;-88
2022/07/25 05:06:01;;;;;;;0.00;0.00;;;;;;;;;;5037457;28;20033;-88
2022/07/25 05:08:27;;;;;;;0.10;0.10;;;;;;;;;;5004490;28;20441;-89
2022/07/25 05:10:53;;;;;;;0.00;0.00;;;;;;;;;;5017321;28;20042;-89
2022/07/25 05:13:19;;;;;;;0.00;0.00;;;;;;;;;;5010134;28;20038;-89
2022/07/25 05:15:46;;;;;;;0.00;0.00;;;;;;;;;;5038816;28;20045;-90
2022/07/25 05:18:13;;;;;;;0.00;0.00;;;;;;;;;;5019014;28;20096;-90
2022/07/25 05:20:39;;;;;;;0.00;0.00;;;;;;;;;;5038723;28;20555;-90
2022/07/25 05:23:05;;;;;;;0.00;0.00;;;;;;;;;;5022780;28;20065;-89
2022/07/25 05:25:31;;;;;;;0.00;0.00;;;;;;;;;;5038166;28;20040;-90
2022/07/25 05:27:57;;;;;;;0.05;0.05;;;;;;;;;;5038261;28;20116;-90
2022/07/25 05:30:23;;;;;;;0.00;0.00;;;;;;;;;;5019054;28;20668;-88
2022/07/25 05:32:49;;;;;;;0.10;0.10;;;;;;;;;;5020177;28;20037;-88
2022/07/25 05:35:15;;;;;;;0.05;0.05;;;;;;;;;;5021367;28;20526;-88
2022/07/25 05:37:42;;;;;;;0.00;0.00;;;;;;;;;;5038808;28;20045;-89
2022/07/25 05:40:08;;;;;;;0.00;0.00;;;;;;;;;;5022955;28;20052;-90
2022/07/25 05:42:34;;;;;;;0.00;0.00;;;;;;;;;;5038429;28;20037;-90
2022/07/25 05:45:00;;;;;;;0.10;0.10;;;;;;;;;;5037852;28;20037;-88
2022/07/25 05:47:26;;;;;;;0.00;0.00;;;;;;;;;;5037270;28;20074;-90
2022/07/25 05:49:52;;;;;;;0.10;0.10;;;;;;;;;;5035867;28;20407;-89
2022/07/25 05:52:18;;;;;;;0.00;0.00;;;;;;;;;;5020938;28;20048;-89
2022/07/25 05:54:44;;;;;;;0.00;0.00;;;;;;;;;;5039227;28;20041;-90
2022/07/25 05:57:11;;;;;;;0.10;0.10;;;;;;;;;;5038390;28;20048;-90
2022/07/25 05:59:37;;;;;;;0.05;0.05;;;;;;;;;;5018813;28;20049;-89
2022/07/25 06:02:03;;;;;;;0.10;0.10;;;;;;;;;;5038770;28;20037;-91
2022/07/25 06:04:29;;;;;;;0.00;0.00;;;;;;;;;;5022419;28;20040;-90
2022/07/25 06:06:55;;;;;;;0.08;0.08;;;;;;;;;;5038795;28;20041;-88
2022/07/25 06:09:22;;;;;;;0.03;0.03;;;;;;;;;;5037647;28;20045;-89
2022/07/25 06:11:48;;;;;;;0.00;0.00;;;;;;;;;;5021512;28;20179;-88
2022/07/25 06:14:15;;;;;;;0.00;0.00;;;;;;;;;;5020665;28;20037;-88
2022/07/25 06:16:41;;;;;;;0.00;0.00;;;;;;;;;;5037679;28;20037;-88
2022/07/25 06:19:07;;;;;;;0.00;0.00;;;;;;;;;;5002071;28;20444;-89
2022/07/25 06:21:33;;;;;;;0.00;0.00;;;;;;;;;;5037606;28;20479;-89
2022/07/25 06:23:59;;;;;;;0.00;0.00;;;;;;;;;;5017029;28;20083;-88
2022/07/25 06:26:25;;;;;;;0.10;0.10;;;;;;;;;;5037552;28;20030;-89
2022/07/25 06:28:51;;;;;;;0.00;0.00;;;;;;;;;;5036786;28;20116;-92
2022/07/25 06:31:17;;;;;;;0.20;0.20;;;;;;;;;;5036420;28;20037;-89
2022/07/25 06:33:46;;;;;;;0.00;0.00;;;;;;;;;;5037181;28;20048;-89
2022/07/25 06:36:12;;;;;;;0.10;0.10;;;;;;;;;;5037566;28;20041;-88
2022/07/25 06:38:39;;;;;;;0.00;0.00;;;;;;;;;;5038568;28;20044;-88
2022/07/25 06:41:05;;;;;;;0.00;0.00;;;;;;;;;;5037437;28;20092;-89
2022/07/25 06:43:31;;;;;;;0.08;0.08;;;;;;;;;;5019625;28;20044;-91
2022/07/25 06:45:57;;;;;;;0.00;0.00;;;;;;;;;;5037847;28;20037;-90
2022/07/25 06:48:23;;;;;;;0.00;0.00;;;;;;;;;;5037876;28;20041;-90
2022/07/25 06:50:50;;;;;;;0.00;0.00;;;;;;;;;;5020281;28;20049;-91
2022/07/25 06:53:16;;;;;;;0.00;0.00;;;;;;;;;;5022338;28;20041;-89
2022/07/25 06:55:42;;;;;;;0.10;0.10;;;;;;;;;;5021982;28;20067;-90
2022/07/25 06:58:08;;;;;;;0.00;0.00;;;;;;;;;;5021497;28;20136;-91
2022/07/25 07:00:34;;;;;;;0.10;0.10;;;;;;;;;;5039645;28;20052;-91
2022/07/25 07:03:01;;;;;;;0.00;0.00;;;;;;;;;;5039291;28;20037;-90
2022/07/25 07:05:29;;;;;;;0.00;0.00;;;;;;;;;;5039467;28;20037;-91
2022/07/25 07:07:55;;;;;;;0.10;0.10;;;;;;;;;;5038989;28;20034;-91
2022/07/25 07:10:22;;;;;;;0.15;0.15;;;;;;;;;;5039937;28;20056;-92
2022/07/25 07:12:48;;;;;;;0.03;0.03;;;;;;;;;;5040536;28;20419;-92
2022/07/25 07:15:15;;;;;;;0.10;0.10;;;;;;;;;;5022463;28;20037;-89
2022/07/25 07:17:41;;;;;;;0.00;0.00;;;;;;;;;;5021843;28;20137;-89
2022/07/25 07:20:08;;;;;;;0.00;0.00;;;;;;;;;;5039714;28;20037;-89
2022/07/25 07:22:44;;;;;;;0.00;0.00;;;;;;;;;;5041632;28;20041;-90
2022/07/25 07:25:10;;;;;;;0.00;0.00;;;;;;;;;;5026239;28;20033;-90
2022/07/25 07:27:36;;;;;;;0.05;0.05;;;;;;;;;;5044687;28;20104;-92
2022/07/25 07:30:02;;;;;;;0.00;0.00;;;;;;;;;;5025107;28;20045;-93
2022/07/25 07:32:28;;;;;;;0.10;0.10;;;;;;;;;;5044734;28;20120;-92
2022/07/25 07:34:54;;;;;;;0.10;0.10;;;;;;;;;;5027384;28;20091;-92
2022/07/25 07:37:20;;;;;;;0.10;0.10;;;;;;;;;;5043464;28;20064;-90
2022/07/25 07:39:46;;;;;;;0.20;0.20;;;;;;;;;;5022608;28;20042;-89
2022/07/25 07:42:12;;;;;;;0.00;0.00;;;;;;;;;;5025710;28;20037;-89
2022/07/25 07:44:38;;;;;;;0.05;0.05;;;;;;;;;;5007406;28;20124;-90
2022/07/25 07:47:05;;;;;;;0.00;0.00;;;;;;;;;;5043763;28;20048;-89
2022/07/25 07:49:31;;;;;;;0.00;0.00;;;;;;;;;;5044314;28;20083;-91
2022/07/25 07:51:57;;;;;;;0.13;0.13;;;;;;;;;;5042360;28;20375;-91
2022/07/25 07:57:07;;;;;;;0.05;0.05;;;;;;;;;;5042711;28;20041;-91
2022/07/25 07:59:33;;;;;;;0.10;0.10;;;;;;;;;;5026787;28;20041;-90
2022/07/25 08:01:59;;;;;;;0.00;0.00;;;;;;;;;;5024962;28;20116;-89
2022/07/25 08:04:25;;;;;;;0.00;0.00;;;;;;;;;;5038966;28;20068;-90
2022/07/25 08:06:51;;;;;;;0.10;0.10;;;;;;;;;;5038749;28;20119;-90
2022/07/25 08:09:18;;;;;;;0.03;0.03;;;;;;;;;;5038956;28;20045;-90
2022/07/25 08:11:44;;;;;;;0.08;0.08;;;;;;;;;;5024254;28;20072;-91
2022/07/25 08:14:10;;;;;;;0.05;0.05;;;;;;;;;;5041880;28;20077;-92
2022/07/25 08:16:36;;;;;;;0.00;0.00;;;;;;;;;;5042225;28;20175;-91
2022/07/25 08:19:02;;;;;;;0.00;0.00;;;;;;;;;;5041964;28;20083;-90
2022/07/25 08:21:28;;;;;;;0.00;0.00;;;;;;;;;;5021637;28;20041;-89
2022/07/25 08:23:54;;;;;;;0.10;0.10;;;;;;;;;;5042720;28;20041;-90
2022/07/25 08:26:20;;;;;;;0.10;0.10;;;;;;;;;;5042708;28;20041;-90
2022/07/25 08:28:46;;;;;;;0.00;0.00;;;;;;;;;;5043957;28;20045;-92
2022/07/25 08:31:12;;;;;;;0.00;0.00;;;;;;;;;;5027472;28;20042;-91
2022/07/25 08:33:38;;;;;;;0.00;0.00;;;;;;;;;;5044112;28;20040;-89
2022/07/25 08:36:04;;;;;;;0.00;0.00;;;;;;;;;;5022918;28;20046;-89
2022/07/25 08:38:30;;;;;;;0.00;0.00;;;;;;;;;;5043520;28;20622;-91
2022/07/25 08:40:58;;;;;;;0.10;0.10;;;;;;;;;;5043545;28;20131;-91
2022/07/25 08:43:24;;;;;;;0.10;0.10;;;;;;;;;;5026182;28;20097;-89
2022/07/25 08:45:51;;;;;;;0.00;0.00;;;;;;;;;;5041040;28;20494;-90
2022/07/25 08:48:20;;;;;;;0.00;0.00;;;;;;;;;;5007993;28;20042;-92
2022/07/25 08:50:47;;;;;;;0.10;0.10;;;;;;;;;;5009587;28;20033;-92
2022/07/25 08:53:14;;;;;;;0.10;0.10;;;;;;;;;;5025799;28;20204;-91
2022/07/25 08:55:42;;;;;;;0.08;0.08;;;;;;;;;;5040244;28;20068;-90
2022/07/25 08:58:10;;;;;;;0.10;0.10;;;;;;;;;;5020488;28;20065;-89
2022/07/25 09:00:36;;;;;;;0.00;0.00;;;;;;;;;;5022527;28;20041;-89
2022/07/25 09:03:05;;;;;;;0.05;0.05;;;;;;;;;;5009535;28;20029;-90
2022/07/25 09:05:32;;;;;;;0.00;0.00;;;;;;;;;;5023344;28;20041;-91
2022/07/25 09:08:05;;;;;;;0.10;0.10;;;;;;;;;;5022325;28;20040;-89
2022/07/25 09:10:31;;;;;;;0.00;0.00;;;;;;;;;;5021708;28;20042;-91
2022/07/25 09:12:58;;;;;;;0.00;0.00;;;;;;;;;;5022357;28;20041;-90
2022/07/25 09:15:34;;;;;;;0.10;0.10;;;;;;;;;;5025546;28;20038;-91
2022/07/25 09:18:04;;;;;;;0.00;0.00;;;;;;;;;;5040904;28;20045;-91
2022/07/25 09:20:36;;;;;;;0.00;0.00;;;;;;;;;;5024054;28;20040;-90
2022/07/25 09:23:06;;;;;;;0.00;0.00;;;;;;;;;;5043607;28;20041;-91
2022/07/25 09:25:32;;;;;;;0.00;0.00;;;;;;;;;;5008820;28;20446;-92
2022/07/25 09:28:10;;;;;;;0.00;0.00;;;;;;;;;;5023236;28;20096;-90
2022/07/25 09:30:38;;;;;;;0.00;0.00;;;;;;;;;;5042171;28;20041;-91
2022/07/25 09:33:04;;;;;;;0.00;0.00;;;;;;;;;;5024076;28;20038;-91
2022/07/25 09:35:37;;;;;;;0.00;0.00;;;;;;;;;;5041006;28;20044;-90
2022/07/25 09:38:10;;;;;;;0.00;0.00;;;;;;;;;;5025662;28;20029;-89
2022/07/25 09:40:36;;;;;;;0.00;0.00;;;;;;;;;;5009835;28;20043;-91
2022/07/25 09:43:03;;;;;;;0.25;0.22;;;;;;;;;;5044220;28;20041;-91
2022/07/25 09:45:29;;;;;;;0.00;0.00;;;;;;;;;;5043559;28;20038;-90
2022/07/25 09:47:56;;;;;;;0.00;0.00;;;;;;;;;;5023104;28;20077;-91
2022/07/25 09:50:23;;;;;;;0.00;0.00;;;;;;;;;;5042623;28;20037;-93
2022/07/25 09:52:53;;;;;;;0.00;0.00;;;;;;;;;;5026965;28;20407;-90
2022/07/25 09:55:20;;;;;;;0.00;0.00;;;;;;;;;;5021969;28;20037;-91
2022/07/25 09:57:47;;;;;;;0.05;0.05;;;;;;;;;;5022811;28;20057;-90
2022/07/25 10:00:18;;;;;;;0.00;0.00;;;;;;;;;;5025513;28;20034;-91
2022/07/25 10:02:51;;;;;;;0.10;0.10;;;;;;;;;;5025441;28;20053;-89
2022/07/25 10:05:23;;;;;;;0.00;0.00;;;;;;;;;;5018847;28;20034;-90
2022/07/25 10:07:50;;;;;;;0.00;0.00;;;;;;;;;;5032961;28;20053;-90
2022/07/25 10:10:40;;;;;;;0.00;0.00;;;;;;;;;;5020236;28;20025;-90
2022/07/25 10:13:10;;;;;;;0.08;0.08;;;;;;;;;;5014591;28;20080;-90
2022/07/25 10:15:52;;;;;;;0.00;0.00;;;;;;;;;;5042021;28;20068;-91
2022/07/25 10:18:22;;;;;;;0.08;0.08;;;;;;;;;;5038191;28;20040;-91
2022/07/25 10:20:49;;;;;;;0.00;0.00;;;;;;;;;;5022186;28;20034;-90
2022/07/25 10:23:16;;;;;;;0.00;0.00;;;;;;;;;;5021542;28;20021;-90
2022/07/25 10:25:43;;;;;;;0.00;0.00;;;;;;;;;;5041528;28;20038;-91
2022/07/25 10:28:09;;;;;;;0.00;0.00;;;;;;;;;;5024858;28;20133;-89
2022/07/25 10:30:36;;;;;;;0.05;0.05;;;;;;;;;;5042009;28;20080;-91
2022/07/25 10:33:13;;;;;;;0.00;0.00;;;;;;;;;;5042256;28;20483;-90
2022/07/25 10:35:40;;;;;;;0.00;0.00;;;;;;;;;;5025245;28;20043;-91
2022/07/25 10:38:06;;;;;;;0.10;0.10;;;;;;;;;;5041420;28;20041;-90
2022/07/25 10:40:34;;;;;;;0.03;0.03;;;;;;;;;;5024358;28;20058;-89
2022/07/25 10:43:01;;;;;;;0.10;0.10;;;;;;;;;;5025026;28;20044;-90
2022/07/25 10:45:33;;;;;;;0.00;0.00;;;;;;;;;;5041038;28;20033;-90
2022/07/25 10:48:05;;;;;;;0.00;0.00;;;;;;;;;;5040829;28;20483;-90
2022/07/25 10:50:31;;;;;;;0.00;0.00;;;;;;;;;;5021468;28;20056;-90
2022/07/25 10:52:59;;;;;;;0.00;0.00;;;;;;;;;;5014392;28;20041;-89
2022/07/25 10:55:27;;;;;;;0.00;0.00;;;;;;;;;;5023256;28;20545;-91
2022/07/25 10:58:07;;;;;;;0.00;0.00;;;;;;;;;;5022539;28;20045;-90
2022/07/25 11:00:33;;;;;;;0.00;0.00;;;;;;;;;;5025927;28;20037;-90
2022/07/25 11:03:00;;;;;;;0.00;0.00;;;;;;;;;;5028557;28;20045;-91
2022/07/25 11:05:28;;;;;;;0.00;0.00;;;;;;;;;;5025325;28;20404;-90
2022/07/25 11:07:55;;;;;;;0.10;0.10;;;;;;;;;;5026619;28;20038;-90
2022/07/25 11:10:25;;;;;;;0.00;0.00;;;;;;;;;;5025931;28;20049;-91
2022/07/25 11:12:51;;;;;;;0.00;0.00;;;;;;;;;;5026259;28;20054;-91
2022/07/25 11:15:21;;;;;;;0.00;0.00;;;;;;;;;;5044707;28;20052;-91
2022/07/25 11:17:51;;;;;;;0.00;0.00;;;;;;;;;;5028042;28;20053;-91
2022/07/25 11:20:20;;;;;;;0.10;0.10;;;;;;;;;;5027380;28;20494;-91
2022/07/25 11:22:55;;;;;;;0.00;0.00;;;;;;;;;;5046162;28;20475;-91
2022/07/25 11:25:22;;;;;;;0.00;0.00;;;;;;;;;;5026810;28;20030;-89
2022/07/25 11:27:56;;;;;;;0.10;0.10;;;;;;;;;;5042747;28;20033;-91
2022/07/25 11:30:22;;;;;;;;;;;;;;;;;;5029332;28;20038;-92
2022/07/25 11:32:54;;;;;;;0.00;0.00;;;;;;;;;;5028866;28;19948;-91
2022/07/25 11:35:22;;;;;;;0.00;0.00;;;;;;;;;;5028364;28;20124;-92
2022/07/25 11:37:49;;;;;;;0.00;0.00;;;;;;;;;;5023593;28;20070;-91
2022/07/25 11:40:16;;;;;;;0.00;0.00;;;;;;;;;;5028570;28;20099;-91
2022/07/25 11:42:52;;;;;;;0.00;0.00;;;;;;;;;;5021373;28;20088;-91
2022/07/25 11:45:22;;;;;;;0.00;0.00;;;;;;;;;;5025815;28;20045;-93
2022/07/25 11:47:49;;;;;;;0.10;0.10;;;;;;;;;;5045577;28;20045;-91
2022/07/25 11:50:16;;;;;;;0.00;0.00;;;;;;;;;;5044347;28;20037;-91
2022/07/25 11:52:42;;;;;;;0.10;0.10;;;;;;;;;;5044260;28;20049;-92
2022/07/25 11:55:12;;;;;;;0.00;0.00;;;;;;;;;;5043176;28;20037;-91
2022/07/25 11:57:40;;;;;;;0.00;0.00;;;;;;;;;;5027865;28;20045;-91
2022/07/25 12:00:14;;;;;;;0.00;0.00;;;;;;;;;;5044822;28;20061;-93
2022/07/25 12:02:40;;;;;;;;;;;;;;;;;;5024890;28;20124;-93
2022/07/25 12:05:07;;;;;;;0.00;0.00;;;;;;;;;;5024248;28;19940;-92
2022/07/25 12:07:36;;;;;;;0.03;0.03;;;;;;;;;;5026798;28;20088;-92
2022/07/25 12:10:03;;;;;;;0.00;0.00;;;;;;;;;;5028756;28;20049;-92
2022/07/25 12:12:29;;;;;;;0.10;0.10;;;;;;;;;;5044846;28;20037;-92
2022/07/25 12:14:56;;;;;;;0.00;0.00;;;;;;;;;;5044001;28;20113;-92
2022/07/25 12:17:22;;;;;;;0.00;0.00;;;;;;;;;;5027700;28;20045;-92
2022/07/25 12:19:48;;;;;;;0.08;0.08;;;;;;;;;;5027829;28;20076;-93
2022/07/25 12:22:14;;;;;;;0.00;0.00;;;;;;;;;;5025843;28;20034;-92
2022/07/25 12:24:40;;;;;;;0.10;0.10;;;;;;;;;;5044434;28;20510;-92
2022/07/25 12:27:06;;;;;;;0.00;0.00;;;;;;;;;;5045093;28;20037;-92
2022/07/25 12:29:32;;;;;;;0.00;0.00;;;;;;;;;;5045048;28;20049;-93
2022/07/25 12:31:58;;;;;;;0.00;0.00;;;;;;;;;;5043672;28;20503;-94
2022/07/25 12:34:24;;;;;;;0.10;0.10;;;;;;;;;;5044489;28;20049;-91
2022/07/25 12:36:51;;;;;;;0.00;0.00;;;;;;;;;;5024452;28;20042;-91
2022/07/25 12:39:17;;;;;;;0.00;0.00;;;;;;;;;;5024170;28;20092;-91
2022/07/25 12:41:43;;;;;;;0.08;0.08;;;;;;;;;;5042583;28;20037;-91
2022/07/25 12:44:09;;;;;;;0.10;0.10;;;;;;;;;;5025460;28;20076;-91
2022/07/25 12:46:37;;;;;;;0.00;0.00;;;;;;;;;;5043296;28;20033;-93
2022/07/25 12:49:03;;;;;;;0.00;0.00;;;;;;;;;;5025945;28;20042;-92
2022/07/25 12:51:29;;;;;;;0.10;0.10;;;;;;;;;;5043688;28;20045;-93
2022/07/25 12:53:56;;;;;;;0.00;0.00;;;;;;;;;;5010188;28;20041;-90
2022/07/25 12:56:22;;;;;;;0.05;0.05;;;;;;;;;;5042578;28;20068;-91
2022/07/25 12:58:49;;;;;;;0.05;0.05;;;;;;;;;;5025692;28;20042;-91
2022/07/25 13:01:15;;;;;;;0.00;0.00;;;;;;;;;;5022880;28;20065;-91
2022/07/25 13:03:42;;;;;;;0.00;0.00;;;;;;;;;;5039865;28;20045;-93
2022/07/25 13:06:08;;;;;;;0.17;0.17;;;;;;;;;;5021907;28;20033;-91
2022/07/25 13:08:36;;;;;;;0.00;0.00;;;;;;;;;;5040691;28;20041;-92
2022/07/25 13:11:02;;;;;;;0.00;0.00;;;;;;;;;;5027452;28;20045;-92
2022/07/25 13:13:29;;;;;;;0.10;0.10;;;;;;;;;;5025608;28;20041;-92
2022/07/25 13:15:55;;;;;;;0.00;0.00;;;;;;;;;;5042955;28;20051;-92
2022/07/25 13:18:21;;;;;;;0.10;0.10;;;;;;;;;;5025025;28;20096;-93
2022/07/25 13:20:47;;;;;;;0.10;0.10;;;;;;;;;;5041955;28;20041;-93
2022/07/25 13:23:13;;;;;;;0.10;0.10;;;;;;;;;;5022992;28;20037;-92
2022/07/25 13:25:39;;;;;;;0.00;0.00;;;;;;;;;;5042999;28;20037;-93
2022/07/25 13:28:05;;;;;;;0.00;0.00;;;;;;;;;;5038576;28;20084;-91
2022/07/25 13:30:32;;;;;;;0.10;0.10;;;;;;;;;;5023712;28;20042;-92
2022/07/25 13:32:58;;;;;;;0.00;0.00;;;;;;;;;;5024835;28;20041;-92
2022/07/25 13:35:24;;;;;;;0.20;0.20;;;;;;;;;;5025219;28;20057;-91
2022/07/25 13:37:51;;;;;;;0.00;0.00;;;;;;;;;;5025899;28;20129;-90
2022/07/25 13:40:17;;;;;;;0.10;0.10;;;;;;;;;;5026303;28;20041;-90
2022/07/25 13:42:43;;;;;;;0.03;0.03;;;;;;;;;;5038511;28;20041;-92
2022/07/25 13:45:09;;;;;;;0.10;0.10;;;;;;;;;;5017972;28;20033;-90
2022/07/25 13:47:35;;;;;;;0.10;0.10;;;;;;;;;;5039615;28;20037;-92
2022/07/25 13:50:01;;;;;;;0.00;0.00;;;;;;;;;;5024808;28;20060;-91
2022/07/25 13:52:27;;;;;;;0.00;0.00;;;;;;;;;;5042657;28;20048;-92
2022/07/25 13:54:53;;;;;;;0.10;0.10;;;;;;;;;;5025376;28;20045;-90
2022/07/25 13:57:19;;;;;;;0.00;0.00;;;;;;;;;;5022039;28;20045;-90
2022/07/25 13:59:46;;;;;;;0.00;0.00;;;;;;;;;;5006398;28;20109;-92
2022/07/25 14:02:12;;;;;;;0.00;0.00;;;;;;;;;;5021211;28;20088;-92
2022/07/25 14:04:38;;;;;;;0.10;0.10;;;;;;;;;;5040975;28;20099;-91
2022/07/25 14:07:04;;;;;;;0.10;0.10;;;;;;;;;;5021651;28;20049;-89
2022/07/25 14:09:30;;;;;;;0.10;0.10;;;;;;;;;;5023862;28;20094;-91
2022/07/25 14:11:56;;;;;;;0.00;0.00;;;;;;;;;;5023528;28;20121;-92
2022/07/25 14:14:22;;;;;;;0.00;0.00;;;;;;;;;;5021578;28;20101;-91
2022/07/25 14:16:49;;;;;;;0.00;0.00;;;;;;;;;;5023765;28;20137;-93
2022/07/25 14:19:16;;;;;;;0.00;0.00;;;;;;;;;;5041930;28;20049;-89
2022/07/25 14:21:42;;;;;;;0.00;0.00;;;;;;;;;;5026159;28;20055;-91
2022/07/25 14:24:08;;;;;;;0.00;0.00;;;;;;;;;;5020747;28;20034;-90
2022/07/25 14:26:35;;;;;;;0.00;0.00;;;;;;;;;;5021434;28;20069;-90
2022/07/25 14:29:01;;;;;;;0.00;0.00;;;;;;;;;;5024562;28;20324;-91
2022/07/25 14:31:27;;;;;;;0.10;0.10;;;;;;;;;;5041946;28;20063;-91
2022/07/25 14:33:53;;;;;;;0.00;0.00;;;;;;;;;;5023758;28;20049;-89
2022/07/25 14:36:19;;;;;;;0.00;0.00;;;;;;;;;;5040706;28;20041;-90
2022/07/25 14:38:47;;;;;;;0.10;0.10;;;;;;;;;;5020881;28;20050;-90
2022/07/25 14:41:13;;;;;;;0.00;0.00;;;;;;;;;;5022585;28;20081;-90
2022/07/25 14:43:39;;;;;;;0.00;0.00;;;;;;;;;;5020568;28;20498;-90